Leerdam, Netherlands
Current Conditions -  °F | °C
As of 7:55 AM on Friday 28 Nov 2014 (Local Time) from EHGR Reporting Station
Haze Haze  
Wind Chill: 37°   Ceiling: 6000
Heat Index: 43°   Visibility: 3mi
Dew Point: 43°   Wind: 12mph
Humidity: 100%   Direction: 90°E
Pressure: 29.71"   Gusts: NA
Location:  51.89°N, 5.09°E
Report Text: EHGR 280655Z AUTO 09010KT 5000 BR OVC060 06/06 Q1006 WHT
Loading
Personal Weather Stations






























Interactive Weather Map New forecast layout! Learn more

10-Day Weather Forecast

Advertisements
Track Severe Weather on mobile